sensor_id;sensor_type;location;lat;lon;timestamp;pressure;altitude;pressure_sealevel;temperature;humidity
74578;BME280;63173;49.086;33.418;2022-12-24T00:02:16;100257.44;;;5.72;95.22
74578;BME280;63173;49.086;33.418;2022-12-24T00:04:41;100264.25;;;5.80;95.18
74578;BME280;63173;49.086;33.418;2022-12-24T00:07:06;100257.13;;;5.68;94.91
74578;BME280;63173;49.086;33.418;2022-12-24T00:09:32;100262.25;;;5.70;94.56
74578;BME280;63173;49.086;33.418;2022-12-24T00:11:57;100267.16;;;5.73;95.46
74578;BME280;63173;49.086;33.418;2022-12-24T00:14:23;100264.66;;;5.66;94.84
74578;BME280;63173;49.086;33.418;2022-12-24T00:16:49;100270.66;;;5.73;95.37
74578;BME280;63173;49.086;33.418;2022-12-24T00:19:14;100267.19;;;5.78;95.72
74578;BME280;63173;49.086;33.418;2022-12-24T00:21:39;100270.91;;;5.72;96.03
74578;BME280;63173;49.086;33.418;2022-12-24T00:24:05;100264.81;;;5.82;95.23
74578;BME280;63173;49.086;33.418;2022-12-24T00:26:31;100260.97;;;5.78;95.59
74578;BME280;63173;49.086;33.418;2022-12-24T00:28:57;100263.56;;;5.89;95.24
74578;BME280;63173;49.086;33.418;2022-12-24T00:31:23;100256.88;;;5.97;95.07
74578;BME280;63173;49.086;33.418;2022-12-24T00:33:49;100250.50;;;5.81;95.78
74578;BME280;63173;49.086;33.418;2022-12-24T00:36:15;100253.03;;;5.88;95.29
74578;BME280;63173;49.086;33.418;2022-12-24T00:38:40;100251.16;;;5.88;95.50
74578;BME280;63173;49.086;33.418;2022-12-24T00:41:07;100251.41;;;5.87;95.10
74578;BME280;63173;49.086;33.418;2022-12-24T00:44:00;100249.72;;;5.81;95.46
74578;BME280;63173;49.086;33.418;2022-12-24T00:46:27;100243.84;;;5.89;95.53
74578;BME280;63173;49.086;33.418;2022-12-24T00:48:53;100249.09;;;5.73;95.67
74578;BME280;63173;49.086;33.418;2022-12-24T00:51:19;100247.28;;;5.79;95.58
74578;BME280;63173;49.086;33.418;2022-12-24T00:53:45;100239.19;;;5.79;96.01
74578;BME280;63173;49.086;33.418;2022-12-24T00:56:10;100259.38;;;5.77;95.96
74578;BME280;63173;49.086;33.418;2022-12-24T00:58:36;100253.78;;;5.83;96.04
74578;BME280;63173;49.086;33.418;2022-12-24T01:01:02;100240.63;;;5.87;96.52
74578;BME280;63173;49.086;33.418;2022-12-24T01:03:27;100238.56;;;5.99;95.70
74578;BME280;63173;49.086;33.418;2022-12-24T01:06:04;100237.00;;;6.08;95.27
74578;BME280;63173;49.086;33.418;2022-12-24T01:08:30;100239.00;;;5.86;95.88
74578;BME280;63173;49.086;33.418;2022-12-24T01:10:56;100236.94;;;5.98;95.70
74578;BME280;63173;49.086;33.418;2022-12-24T01:13:22;100243.69;;;5.73;96.41
74578;BME280;63173;49.086;33.418;2022-12-24T01:15:48;100249.34;;;5.72;96.12
74578;BME280;63173;49.086;33.418;2022-12-24T01:18:13;100237.13;;;5.86;96.64
74578;BME280;63173;49.086;33.418;2022-12-24T01:20:38;100238.16;;;5.85;96.14
74578;BME280;63173;49.086;33.418;2022-12-24T01:23:04;100239.00;;;5.86;96.59
74578;BME280;63173;49.086;33.418;2022-12-24T01:25:30;100236.59;;;5.89;95.99
74578;BME280;63173;49.086;33.418;2022-12-24T01:27:55;100237.72;;;5.93;96.53
74578;BME280;63173;49.086;33.418;2022-12-24T01:30:21;100234.72;;;5.90;96.51
74578;BME280;63173;49.086;33.418;2022-12-24T01:32:46;100228.91;;;5.76;97.04
74578;BME280;63173;49.086;33.418;2022-12-24T01:35:11;100222.00;;;5.58;96.60
74578;BME280;63173;49.086;33.418;2022-12-24T01:37:37;100217.97;;;5.56;97.71
74578;BME280;63173;49.086;33.418;2022-12-24T01:40:04;100212.47;;;5.78;97.25
74578;BME280;63173;49.086;33.418;2022-12-24T01:42:51;100214.03;;;5.68;97.96
74578;BME280;63173;49.086;33.418;2022-12-24T01:45:48;100215.03;;;5.89;97.41
74578;BME280;63173;49.086;33.418;2022-12-24T01:50:58;100215.09;;;5.67;97.76
74578;BME280;63173;49.086;33.418;2022-12-24T01:53:25;100224.03;;;5.73;97.07
74578;BME280;63173;49.086;33.418;2022-12-24T01:55:52;100229.16;;;5.74;97.66
74578;BME280;63173;49.086;33.418;2022-12-24T01:58:20;100227.38;;;5.85;96.91
74578;BME280;63173;49.086;33.418;2022-12-24T02:00:48;100229.63;;;5.93;96.71
74578;BME280;63173;49.086;33.418;2022-12-24T02:03:13;100233.41;;;5.92;96.99
74578;BME280;63173;49.086;33.418;2022-12-24T02:08:14;100233.44;;;5.97;97.32
74578;BME280;63173;49.086;33.418;2022-12-24T02:10:40;100237.03;;;5.81;97.08
74578;BME280;63173;49.086;33.418;2022-12-24T02:13:06;100225.38;;;5.75;97.25
74578;BME280;63173;49.086;33.418;2022-12-24T02:30:05;100216.13;;;5.61;97.85
74578;BME280;63173;49.086;33.418;2022-12-24T02:41:27;100221.81;;;5.65;98.37
74578;BME280;63173;49.086;33.418;2022-12-24T02:44:15;100230.66;;;5.87;98.36
74578;BME280;63173;49.086;33.418;2022-12-24T02:46:42;100233.44;;;5.70;97.74
74578;BME280;63173;49.086;33.418;2022-12-24T02:49:08;100229.03;;;5.86;98.33
74578;BME280;63173;49.086;33.418;2022-12-24T02:51:33;100227.22;;;5.70;98.23
74578;BME280;63173;49.086;33.418;2022-12-24T02:53:59;100228.25;;;5.64;97.94
74578;BME280;63173;49.086;33.418;2022-12-24T03:07:34;100232.22;;;5.83;97.91
74578;BME280;63173;49.086;33.418;2022-12-24T03:10:22;100237.72;;;5.66;97.92
74578;BME280;63173;49.086;33.418;2022-12-24T03:12:54;100235.03;;;5.66;98.92
74578;BME280;63173;49.086;33.418;2022-12-24T03:15:23;100233.81;;;5.79;98.39
74578;BME280;63173;49.086;33.418;2022-12-24T03:17:52;100236.69;;;5.72;97.85
74578;BME280;63173;49.086;33.418;2022-12-24T03:20:24;100238.72;;;5.87;98.21
74578;BME280;63173;49.086;33.418;2022-12-24T03:22:51;100236.03;;;5.87;98.39
74578;BME280;63173;49.086;33.418;2022-12-24T03:25:16;100232.66;;;6.02;97.83
74578;BME280;63173;49.086;33.418;2022-12-24T03:27:42;100233.81;;;6.11;96.82
74578;BME280;63173;49.086;33.418;2022-12-24T03:30:13;100234.63;;;6.11;96.74
74578;BME280;63173;49.086;33.418;2022-12-24T03:32:39;100235.03;;;5.98;97.04
74578;BME280;63173;49.086;33.418;2022-12-24T03:35:06;100232.00;;;5.85;97.70
74578;BME280;63173;49.086;33.418;2022-12-24T03:37:32;100242.22;;;5.56;98.25
74578;BME280;63173;49.086;33.418;2022-12-24T03:39:57;100241.44;;;5.60;99.12
74578;BME280;63173;49.086;33.418;2022-12-24T03:42:22;100240.56;;;5.55;99.14
74578;BME280;63173;49.086;33.418;2022-12-24T03:44:48;100247.13;;;5.64;99.20
74578;BME280;63173;49.086;33.418;2022-12-24T03:47:13;100257.03;;;5.58;100.00
74578;BME280;63173;49.086;33.418;2022-12-24T03:49:39;100258.78;;;5.43;99.73
74578;BME280;63173;49.086;33.418;2022-12-24T03:52:04;100261.47;;;5.69;100.00
74578;BME280;63173;49.086;33.418;2022-12-24T03:54:30;100262.59;;;5.47;100.00
74578;BME280;63173;49.086;33.418;2022-12-24T03:56:55;100261.00;;;5.51;100.00
74578;BME280;63173;49.086;33.418;2022-12-24T03:59:20;100269.03;;;5.46;100.00
74578;BME280;63173;49.086;33.418;2022-12-24T04:01:46;100264.31;;;5.58;100.00
74578;BME280;63173;49.086;33.418;2022-12-24T04:04:11;100259.38;;;5.77;100.00
74578;BME280;63173;49.086;33.418;2022-12-24T04:06:37;100251.91;;;5.57;100.00
74578;BME280;63173;49.086;33.418;2022-12-24T04:09:02;100251.03;;;5.51;100.00
74578;BME280;63173;49.086;33.418;2022-12-24T04:11:30;100254.75;;;5.72;100.00
74578;BME280;63173;49.086;33.418;2022-12-24T04:13:56;100252.63;;;5.47;100.00
74578;BME280;63173;49.086;33.418;2022-12-24T04:16:22;100248.47;;;5.61;100.00
74578;BME280;63173;49.086;33.418;2022-12-24T04:18:47;100248.22;;;5.68;100.00
74578;BME280;63173;49.086;33.418;2022-12-24T04:21:13;100251.09;;;5.56;100.00
74578;BME280;63173;49.086;33.418;2022-12-24T04:23:40;100248.31;;;5.46;100.00
74578;BME280;63173;49.086;33.418;2022-12-24T04:26:07;100245.63;;;5.46;100.00
74578;BME280;63173;49.086;33.418;2022-12-24T04:28:33;100243.63;;;5.37;100.00
74578;BME280;63173;49.086;33.418;2022-12-24T04:31:00;100239.22;;;5.52;100.00
74578;BME280;63173;49.086;33.418;2022-12-24T04:33:26;100235.84;;;5.40;100.00
74578;BME280;63173;49.086;33.418;2022-12-24T04:35:52;100233.13;;;5.35;100.00
74578;BME280;63173;49.086;33.418;2022-12-24T04:38:18;100244.38;;;5.32;100.00
74578;BME280;63173;49.086;33.418;2022-12-24T04:40:43;100239.59;;;5.39;100.00
74578;BME280;63173;49.086;33.418;2022-12-24T04:43:09;100240.72;;;5.43;100.00
74578;BME280;63173;49.086;33.418;2022-12-24T04:45:34;100244.38;;;5.32;100.00
74578;BME280;63173;49.086;33.418;2022-12-24T04:48:00;100248.47;;;5.35;100.00
74578;BME280;63173;49.086;33.418;2022-12-24T04:50:25;100248.88;;;5.48;100.00
74578;BME280;63173;49.086;33.418;2022-12-24T04:52:50;100249.63;;;5.70;100.00
74578;BME280;63173;49.086;33.418;2022-12-24T04:55:16;100253.31;;;5.64;100.00
74578;BME280;63173;49.086;33.418;2022-12-24T04:57:41;100251.97;;;5.62;100.00
74578;BME280;63173;49.086;33.418;2022-12-24T05:00:09;100246.94;;;5.44;100.00
74578;BME280;63173;49.086;33.418;2022-12-24T05:02:34;100250.16;;;5.41;100.00
74578;BME280;63173;49.086;33.418;2022-12-24T05:05:00;100238.81;;;5.39;100.00
74578;BME280;63173;49.086;33.418;2022-12-24T05:07:25;100239.59;;;5.39;100.00
74578;BME280;63173;49.086;33.418;2022-12-24T05:09:51;100241.06;;;5.47;100.00
74578;BME280;63173;49.086;33.418;2022-12-24T05:12:16;100235.03;;;5.40;100.00
74578;BME280;63173;49.086;33.418;2022-12-24T05:14:41;100230.28;;;5.47;100.00
74578;BME280;63173;49.086;33.418;2022-12-24T05:17:07;100232.91;;;5.42;100.00
74578;BME280;63173;49.086;33.418;2022-12-24T05:19:32;100235.66;;;5.47;100.00
74578;BME280;63173;49.086;33.418;2022-12-24T05:21:58;100240.41;;;5.40;100.00
74578;BME280;63173;49.086;33.418;2022-12-24T05:24:42;100231.50;;;5.39;100.00
74578;BME280;63173;49.086;33.418;2022-12-24T05:27:26;100239.28;;;5.36;100.00
74578;BME280;63173;49.086;33.418;2022-12-24T05:29:51;100240.13;;;5.36;100.00
74578;BME280;63173;49.086;33.418;2022-12-24T05:32:17;100248.47;;;5.35;100.00
74578;BME280;63173;49.086;33.418;2022-12-24T05:34:42;100238.53;;;5.40;100.00
74578;BME280;63173;49.086;33.418;2022-12-24T05:37:08;100228.03;;;5.39;100.00
74578;BME280;63173;49.086;33.418;2022-12-24T05:39:33;100234.44;;;5.33;100.00
74578;BME280;63173;49.086;33.418;2022-12-24T05:41:59;100238.44;;;5.30;100.00
74578;BME280;63173;49.086;33.418;2022-12-24T05:44:24;100233.50;;;5.49;100.00
74578;BME280;63173;49.086;33.418;2022-12-24T05:46:49;100236.72;;;5.46;100.00
74578;BME280;63173;49.086;33.418;2022-12-24T05:49:15;100236.16;;;5.44;100.00
74578;BME280;63173;49.086;33.418;2022-12-24T05:51:40;100235.03;;;5.40;100.00
74578;BME280;63173;49.086;33.418;2022-12-24T05:54:06;100234.53;;;5.43;100.00
74578;BME280;63173;49.086;33.418;2022-12-24T05:56:32;100231.88;;;5.48;100.00
74578;BME280;63173;49.086;33.418;2022-12-24T05:58:57;100239.66;;;5.44;100.00
74578;BME280;63173;49.086;33.418;2022-12-24T06:01:23;100235.66;;;5.47;100.00
74578;BME280;63173;49.086;33.418;2022-12-24T06:03:49;100236.44;;;5.47;100.00
74578;BME280;63173;49.086;33.418;2022-12-24T06:06:18;100233.72;;;5.42;100.00
74578;BME280;63173;49.086;33.418;2022-12-24T06:08:45;100241.34;;;5.50;100.00
74578;BME280;63173;49.086;33.418;2022-12-24T06:11:13;100242.38;;;5.44;100.00
74578;BME280;63173;49.086;33.418;2022-12-24T06:13:39;100243.19;;;5.45;100.00
74578;BME280;63173;49.086;33.418;2022-12-24T06:16:07;100231.94;;;5.53;100.00
74578;BME280;63173;49.086;33.418;2022-12-24T06:18:34;100240.81;;;5.53;100.00
74578;BME280;63173;49.086;33.418;2022-12-24T06:21:00;100247.75;;;5.44;100.00
74578;BME280;63173;49.086;33.418;2022-12-24T06:23:28;100251.59;;;5.53;100.00
74578;BME280;63173;49.086;33.418;2022-12-24T06:25:55;100254.00;;;5.50;100.00
74578;BME280;63173;49.086;33.418;2022-12-24T06:28:21;100256.44;;;5.51;100.00
74578;BME280;63173;49.086;33.418;2022-12-24T06:30:48;100254.84;;;5.55;100.00
74578;BME280;63173;49.086;33.418;2022-12-24T06:33:14;100260.84;;;5.62;100.00
74578;BME280;63173;49.086;33.418;2022-12-24T06:35:39;100263.13;;;5.49;100.00
74578;BME280;63173;49.086;33.418;2022-12-24T06:38:05;100272.91;;;5.55;100.00
74578;BME280;63173;49.086;33.418;2022-12-24T06:40:30;100267.34;;;5.66;100.00
74578;BME280;63173;49.086;33.418;2022-12-24T06:42:56;100268.63;;;5.59;100.00
74578;BME280;63173;49.086;33.418;2022-12-24T06:45:21;100269.59;;;5.74;100.00
74578;BME280;63173;49.086;33.418;2022-12-24T06:47:47;100268.22;;;5.72;100.00
74578;BME280;63173;49.086;33.418;2022-12-24T06:50:12;100272.84;;;5.77;100.00
74578;BME280;63173;49.086;33.418;2022-12-24T06:52:37;100277.16;;;5.78;100.00
74578;BME280;63173;49.086;33.418;2022-12-24T06:55:03;100280.56;;;5.95;100.00
74578;BME280;63173;49.086;33.418;2022-12-24T06:57:29;100274.44;;;5.72;100.00
74578;BME280;63173;49.086;33.418;2022-12-24T06:59:58;100269.88;;;5.78;100.00
74578;BME280;63173;49.086;33.418;2022-12-24T07:02:24;100276.94;;;5.79;100.00
74578;BME280;63173;49.086;33.418;2022-12-24T07:04:49;100271.69;;;5.94;100.00
74578;BME280;63173;49.086;33.418;2022-12-24T07:07:15;100264.63;;;5.61;100.00
74578;BME280;63173;49.086;33.418;2022-12-24T07:09:40;100272.09;;;5.54;100.00
74578;BME280;63173;49.086;33.418;2022-12-24T07:12:06;100277.00;;;5.62;100.00
74578;BME280;63173;49.086;33.418;2022-12-24T07:14:31;100271.84;;;5.56;100.00
74578;BME280;63173;49.086;33.418;2022-12-24T07:16:57;100261.84;;;5.56;100.00
74578;BME280;63173;49.086;33.418;2022-12-24T07:19:22;100271.63;;;5.62;100.00
74578;BME280;63173;49.086;33.418;2022-12-24T07:21:48;100274.06;;;5.64;100.00
74578;BME280;63173;49.086;33.418;2022-12-24T07:24:14;100271.91;;;5.66;100.00
74578;BME280;63173;49.086;33.418;2022-12-24T07:26:40;100269.50;;;5.64;100.00
74578;BME280;63173;49.086;33.418;2022-12-24T07:29:05;100275.03;;;5.53;100.00
74578;BME280;63173;49.086;33.418;2022-12-24T07:31:33;100267.47;;;5.50;100.00
74578;BME280;63173;49.086;33.418;2022-12-24T07:33:59;100268.66;;;5.64;100.00
74578;BME280;63173;49.086;33.418;2022-12-24T07:36:25;100267.34;;;5.66;100.00
74578;BME280;63173;49.086;33.418;2022-12-24T07:38:52;100272.34;;;5.53;100.00
74578;BME280;63173;49.086;33.418;2022-12-24T07:41:17;100268.06;;;5.57;100.00
74578;BME280;63173;49.086;33.418;2022-12-24T07:43:43;100272.19;;;5.64;100.00
74578;BME280;63173;49.086;33.418;2022-12-24T07:46:11;100265.69;;;5.60;100.00
74578;BME280;63173;49.086;33.418;2022-12-24T07:48:37;100264.94;;;5.65;100.00
74578;BME280;63173;49.086;33.418;2022-12-24T07:51:03;100271.47;;;5.74;100.00
74578;BME280;63173;49.086;33.418;2022-12-24T07:53:29;100267.72;;;5.75;100.00
74578;BME280;63173;49.086;33.418;2022-12-24T07:55:55;100264.25;;;5.80;100.00
74578;BME280;63173;49.086;33.418;2022-12-24T07:58:21;100262.56;;;5.73;100.00
74578;BME280;63173;49.086;33.418;2022-12-24T08:00:46;100264.34;;;5.85;100.00
74578;BME280;63173;49.086;33.418;2022-12-24T08:03:19;100270.81;;;5.89;99.47
74578;BME280;63173;49.086;33.418;2022-12-24T08:05:45;100254.91;;;5.87;100.00
74578;BME280;63173;49.086;33.418;2022-12-24T08:08:11;100256.56;;;5.93;98.83
74578;BME280;63173;49.086;33.418;2022-12-24T08:10:38;100258.53;;;6.03;98.61
74578;BME280;63173;49.086;33.418;2022-12-24T08:13:04;100249.72;;;6.12;97.76
74578;BME280;63173;49.086;33.418;2022-12-24T08:15:29;100256.28;;;5.90;97.22
74578;BME280;63173;49.086;33.418;2022-12-24T08:17:55;100256.97;;;6.07;97.17
74578;BME280;63173;49.086;33.418;2022-12-24T08:20:20;100249.06;;;6.00;97.63
74578;BME280;63173;49.086;33.418;2022-12-24T08:22:45;100261.09;;;6.19;96.61
74578;BME280;63173;49.086;33.418;2022-12-24T08:25:11;100250.66;;;6.33;96.35
74578;BME280;63173;49.086;33.418;2022-12-24T08:27:36;100258.22;;;6.31;96.67
74578;BME280;63173;49.086;33.418;2022-12-24T08:30:03;100262.13;;;6.13;96.33
74578;BME280;63173;49.086;33.418;2022-12-24T08:32:29;100257.34;;;6.20;96.27
74578;BME280;63173;49.086;33.418;2022-12-24T08:34:54;100246.38;;;6.00;96.44
74578;BME280;63173;49.086;33.418;2022-12-24T08:37:20;100246.03;;;5.87;96.50
74578;BME280;63173;49.086;33.418;2022-12-24T08:39:45;100243.56;;;6.17;96.83
74578;BME280;63173;49.086;33.418;2022-12-24T08:42:11;100247.34;;;6.21;96.65
74578;BME280;63173;49.086;33.418;2022-12-24T08:44:36;100242.41;;;6.08;96.84
74578;BME280;63173;49.086;33.418;2022-12-24T08:47:01;100243.50;;;6.12;96.64
74578;BME280;63173;49.086;33.418;2022-12-24T08:49:27;100250.16;;;5.99;96.16
74578;BME280;63173;49.086;33.418;2022-12-24T08:51:52;100253.91;;;5.98;95.85
74578;BME280;63173;49.086;33.418;2022-12-24T08:54:18;100251.47;;;5.97;96.76
74578;BME280;63173;49.086;33.418;2022-12-24T08:56:44;100255.69;;;6.19;96.21
74578;BME280;63173;49.086;33.418;2022-12-24T08:59:10;100243.75;;;6.05;95.38
74578;BME280;63173;49.086;33.418;2022-12-24T09:01:36;100245.00;;;6.29;95.45
74578;BME280;63173;49.086;33.418;2022-12-24T09:04:03;100242.84;;;6.31;95.21
74578;BME280;63173;49.086;33.418;2022-12-24T09:06:28;100238.94;;;6.12;94.88
74578;BME280;63173;49.086;33.418;2022-12-24T09:08:54;100245.34;;;6.06;95.39
74578;BME280;63173;49.086;33.418;2022-12-24T09:11:19;100246.59;;;6.30;94.70
74578;BME280;63173;49.086;33.418;2022-12-24T09:13:45;100245.06;;;6.39;95.05
74578;BME280;63173;49.086;33.418;2022-12-24T09:16:11;100244.41;;;6.22;94.77
74578;BME280;63173;49.086;33.418;2022-12-24T09:18:37;100238.47;;;6.25;95.71
74578;BME280;63173;49.086;33.418;2022-12-24T09:21:08;100240.91;;;6.27;95.77
74578;BME280;63173;49.086;33.418;2022-12-24T09:23:36;100233.38;;;6.29;95.43
74578;BME280;63173;49.086;33.418;2022-12-24T09:26:07;100231.47;;;6.24;95.29
74578;BME280;63173;49.086;33.418;2022-12-24T09:28:33;100223.97;;;6.36;94.22
74578;BME280;63173;49.086;33.418;2022-12-24T09:31:02;100241.53;;;6.34;94.18
74578;BME280;63173;49.086;33.418;2022-12-24T09:33:30;100226.25;;;6.54;93.34
74578;BME280;63173;49.086;33.418;2022-12-24T09:35:56;100236.03;;;6.71;92.82
74578;BME280;63173;49.086;33.418;2022-12-24T09:38:22;100233.19;;;6.45;93.09
74578;BME280;63173;49.086;33.418;2022-12-24T09:40:49;100235.56;;;6.32;93.10
74578;BME280;63173;49.086;33.418;2022-12-24T09:43:18;100232.78;;;6.68;91.59
74578;BME280;63173;49.086;33.418;2022-12-24T09:48:17;100227.88;;;6.55;92.80
74578;BME280;63173;49.086;33.418;2022-12-24T09:51:10;100233.44;;;6.34;92.89
74578;BME280;63173;49.086;33.418;2022-12-24T09:53:43;100221.84;;;6.38;92.61
74578;BME280;63173;49.086;33.418;2022-12-24T09:56:27;100219.59;;;6.72;92.94
74578;BME280;63173;49.086;33.418;2022-12-24T09:58:58;100217.13;;;6.65;92.89
74578;BME280;63173;49.086;33.418;2022-12-24T10:01:28;100209.31;;;6.64;93.27
74578;BME280;63173;49.086;33.418;2022-12-24T10:03:57;100209.44;;;6.37;93.72
74578;BME280;63173;49.086;33.418;2022-12-24T10:06:32;100211.94;;;6.54;94.48
74578;BME280;63173;49.086;33.418;2022-12-24T10:25:30;100208.06;;;6.87;92.12
74578;BME280;63173;49.086;33.418;2022-12-24T10:28:00;100200.75;;;6.82;91.94
74578;BME280;63173;49.086;33.418;2022-12-24T10:30:27;100196.44;;;6.86;92.23
74578;BME280;63173;49.086;33.418;2022-12-24T10:32:53;100197.19;;;6.72;91.80
74578;BME280;63173;49.086;33.418;2022-12-24T10:35:25;100197.09;;;6.51;92.65
74578;BME280;63173;49.086;33.418;2022-12-24T10:37:52;100190.66;;;6.62;93.09
74578;BME280;63173;49.086;33.418;2022-12-24T10:40:42;100188.94;;;6.98;91.73
74578;BME280;63173;49.086;33.418;2022-12-24T10:43:17;100189.09;;;6.72;92.14
74578;BME280;63173;49.086;33.418;2022-12-24T10:45:46;100197.22;;;6.77;92.42
74578;BME280;63173;49.086;33.418;2022-12-24T10:48:35;100199.97;;;6.87;91.07
74578;BME280;63173;49.086;33.418;2022-12-24T10:51:12;100198.63;;;6.94;91.49
74578;BME280;63173;49.086;33.418;2022-12-24T10:53:53;100198.41;;;7.11;91.50
74578;BME280;63173;49.086;33.418;2022-12-24T10:56:21;100195.66;;;7.01;90.98
74578;BME280;63173;49.086;33.418;2022-12-24T10:58:52;100199.38;;;6.80;91.66
74578;BME280;63173;49.086;33.418;2022-12-24T11:01:19;100200.25;;;6.95;91.72
74578;BME280;63173;49.086;33.418;2022-12-24T11:03:44;100198.94;;;7.08;91.25
74578;BME280;63173;49.086;33.418;2022-12-24T11:06:23;100193.78;;;6.96;91.38
74578;BME280;63173;49.086;33.418;2022-12-24T11:08:48;100204.03;;;6.94;92.02
74578;BME280;63173;49.086;33.418;2022-12-24T11:11:16;100201.88;;;7.01;90.96
74578;BME280;63173;49.086;33.418;2022-12-24T11:13:51;100199.72;;;7.03;90.32
74578;BME280;63173;49.086;33.418;2022-12-24T11:18:58;100202.44;;;7.08;90.74
74578;BME280;63173;49.086;33.418;2022-12-24T11:21:35;100201.94;;;7.16;90.54
74578;BME280;63173;49.086;33.418;2022-12-24T11:24:23;100212.63;;;6.81;91.72
74578;BME280;63173;49.086;33.418;2022-12-24T11:26:50;100203.69;;;6.76;91.58
74578;BME280;63173;49.086;33.418;2022-12-24T11:29:22;100207.25;;;6.91;91.95
74578;BME280;63173;49.086;33.418;2022-12-24T11:31:49;100208.53;;;6.74;92.58
74578;BME280;63173;49.086;33.418;2022-12-24T11:34:29;100209.63;;;6.78;93.02
74578;BME280;63173;49.086;33.418;2022-12-24T11:37:17;100211.03;;;6.90;93.17
74578;BME280;63173;49.086;33.418;2022-12-24T11:39:53;100211.69;;;6.60;93.12
74578;BME280;63173;49.086;33.418;2022-12-24T11:42:38;100203.59;;;6.60;93.44
74578;BME280;63173;49.086;33.418;2022-12-24T11:45:15;100209.63;;;6.78;93.53
74578;BME280;63173;49.086;33.418;2022-12-24T11:47:42;100213.47;;;6.87;91.74
74578;BME280;63173;49.086;33.418;2022-12-24T11:53:12;100217.16;;;6.71;92.67
74578;BME280;63173;49.086;33.418;2022-12-24T11:55:56;100214.50;;;6.86;92.38
74578;BME280;63173;49.086;33.418;2022-12-24T12:03:41;100222.06;;;6.84;93.02
74578;BME280;63173;49.086;33.418;2022-12-24T12:06:38;100224.75;;;6.74;93.18
74578;BME280;63173;49.086;33.418;2022-12-24T12:09:19;100228.00;;;6.81;92.35
74578;BME280;63173;49.086;33.418;2022-12-24T12:11:49;100231.97;;;6.68;92.54
74578;BME280;63173;49.086;33.418;2022-12-24T12:14:24;100232.97;;;6.47;93.52
74578;BME280;63173;49.086;33.418;2022-12-24T12:17:53;100233.44;;;6.39;93.60
74578;BME280;63173;49.086;33.418;2022-12-24T12:24:55;100239.63;;;6.34;94.25
74578;BME280;63173;49.086;33.418;2022-12-24T12:29:59;100233.19;;;6.45;94.41
74578;BME280;63173;49.086;33.418;2022-12-24T12:32:43;100236.69;;;6.41;94.84
74578;BME280;63173;49.086;33.418;2022-12-24T12:35:35;100229.44;;;6.41;94.32
74578;BME280;63173;49.086;33.418;2022-12-24T12:38:11;100223.22;;;6.41;94.47
74578;BME280;63173;49.086;33.418;2022-12-24T12:43:38;100226.25;;;6.54;94.71
74578;BME280;63173;49.086;33.418;2022-12-24T12:46:19;100225.34;;;6.39;94.75
74578;BME280;63173;49.086;33.418;2022-12-24T12:49:08;100230.59;;;6.60;94.26
74578;BME280;63173;49.086;33.418;2022-12-24T12:57:12;100236.59;;;6.68;93.92
74578;BME280;63173;49.086;33.418;2022-12-24T12:59:59;100232.78;;;6.63;93.83
74578;BME280;63173;49.086;33.418;2022-12-24T13:05:37;100240.88;;;6.63;94.21
74578;BME280;63173;49.086;33.418;2022-12-24T13:11:15;100242.44;;;6.54;93.98
74578;BME280;63173;49.086;33.418;2022-12-24T13:17:13;100257.34;;;6.67;93.43
74578;BME280;63173;49.086;33.418;2022-12-24T13:22:55;100260.69;;;6.89;91.81
74578;BME280;63173;49.086;33.418;2022-12-24T13:25:26;100262.34;;;6.90;92.01
74578;BME280;63173;49.086;33.418;2022-12-24T13:27:53;100259.94;;;6.99;92.28
74578;BME280;63173;49.086;33.418;2022-12-24T13:30:38;100257.97;;;6.79;91.76
74578;BME280;63173;49.086;33.418;2022-12-24T13:33:06;100256.06;;;6.80;91.93
74578;BME280;63173;49.086;33.418;2022-12-24T13:35:34;100265.81;;;6.86;92.44
74578;BME280;63173;49.086;33.418;2022-12-24T13:38:34;100265.88;;;6.96;91.56
74578;BME280;63173;49.086;33.418;2022-12-24T13:44:18;100272.91;;;7.02;90.53
74578;BME280;63173;49.086;33.418;2022-12-24T13:49:41;100278.94;;;7.24;89.89
74578;BME280;63173;49.086;33.418;2022-12-24T13:57:35;100266.53;;;7.23;90.10
74578;BME280;63173;49.086;33.418;2022-12-24T14:02:33;100267.63;;;7.32;90.12
74578;BME280;63173;49.086;33.418;2022-12-24T14:05:04;100269.50;;;7.26;89.76
74578;BME280;63173;49.086;33.418;2022-12-24T14:07:33;100277.88;;;7.30;88.94
74578;BME280;63173;49.086;33.418;2022-12-24T14:09:59;100280.25;;;7.11;89.17
74578;BME280;63173;49.086;33.418;2022-12-24T14:12:45;100289.25;;;7.37;89.85
74578;BME280;63173;49.086;33.418;2022-12-24T14:18:18;100295.09;;;7.14;89.84
74578;BME280;63173;49.086;33.418;2022-12-24T14:20:49;100283.25;;;7.25;89.00
74578;BME280;63173;49.086;33.418;2022-12-24T14:23:39;100286.25;;;7.33;88.49
74578;BME280;63173;49.086;33.418;2022-12-24T14:26:12;100289.19;;;7.27;89.74
74578;BME280;63173;49.086;33.418;2022-12-24T14:28:42;100286.53;;;7.32;89.17
74578;BME280;63173;49.086;33.418;2022-12-24T14:31:17;100286.19;;;7.13;89.92
74578;BME280;63173;49.086;33.418;2022-12-24T14:33:44;100291.28;;;7.05;89.86
74578;BME280;63173;49.086;33.418;2022-12-24T14:36:12;100287.59;;;7.26;89.91
74578;BME280;63173;49.086;33.418;2022-12-24T14:38:41;100284.06;;;7.20;89.30
74578;BME280;63173;49.086;33.418;2022-12-24T14:41:31;100290.34;;;7.36;89.21
74578;BME280;63173;49.086;33.418;2022-12-24T14:47:11;100292.94;;;7.06;89.56
74578;BME280;63173;49.086;33.418;2022-12-24T14:53:12;100290.50;;;7.09;90.22
74578;BME280;63173;49.086;33.418;2022-12-24T14:58:26;100298.69;;;7.29;89.35
74578;BME280;63173;49.086;33.418;2022-12-24T15:00:55;100300.38;;;7.50;88.98
74578;BME280;63173;49.086;33.418;2022-12-24T15:03:26;100306.56;;;7.41;87.62